Time;durP1;ratioP1;P1;durP2;ratioP2;P2;SDS_P1;SDS_P2;PMS_P1;PMS_P2;Temp;Humidity;BMP_temperature;BMP_pressure;BME280_temperature;BME280_humidity;BME280_pressure;Samples;Min_cycle;Max_cycle;Signal;HPM_P1;HPM_P2
2022/09/20 00:00:15;;;;;;;3.53;2.00;;;4.20;99.90;;;;;;5041939;23;20246;-69
2022/09/20 00:02:16;;;;;;;4.73;1.87;;;4.10;99.90;;;;;;5043126;23;20421;-72
2022/09/20 00:04:16;;;;;;;4.50;1.90;;;4.10;99.90;;;;;;5043224;23;20178;-71
2022/09/20 00:06:19;;;;;;;4.03;2.20;;;4.20;99.90;;;;;;5043157;23;20180;-71
2022/09/20 00:08:20;;;;;;;4.77;1.70;;;4.20;99.90;;;;;;5043129;23;20215;-71
2022/09/20 00:10:23;;;;;;;4.63;1.60;;;4.20;99.90;;;;;;5042492;23;20862;-71
2022/09/20 00:12:23;;;;;;;2.20;1.60;;;4.10;99.90;;;;;;5042826;23;20649;-71
2022/09/20 00:14:24;;;;;;;3.33;1.60;;;4.00;99.90;;;;;;5043038;23;20454;-71
2022/09/20 00:16:28;;;;;;;3.10;1.47;;;4.00;99.90;;;;;;5043136;23;20163;-71
2022/09/20 00:18:29;;;;;;;2.63;1.80;;;4.00;99.90;;;;;;5042809;23;20527;-71
2022/09/20 00:20:29;;;;;;;4.90;2.57;;;3.90;99.90;;;;;;5042168;23;20396;-71
2022/09/20 00:22:30;;;;;;;4.03;2.37;;;3.90;99.90;;;;;;5041995;23;20163;-70
2022/09/20 00:24:31;;;;;;;5.67;1.97;;;3.90;99.90;;;;;;5043053;23;20623;-71
2022/09/20 00:26:32;;;;;;;3.47;2.17;;;3.90;99.90;;;;;;5041353;23;20174;-71
2022/09/20 00:28:33;;;;;;;3.90;1.80;;;3.90;99.90;;;;;;5042674;23;20434;-70
2022/09/20 00:30:34;;;;;;;5.10;2.00;;;3.90;99.90;;;;;;5042309;23;20170;-71
2022/09/20 00:32:35;;;;;;;4.10;2.10;;;4.00;99.90;;;;;;5044100;23;20223;-71
2022/09/20 00:36:54;;;;;;;3.47;1.83;;;4.20;99.90;;;;;;5067494;23;20156;-71
2022/09/20 00:39:00;;;;;;;11.93;2.50;;;4.20;99.90;;;;;;5067136;23;20727;-71
2022/09/20 00:41:01;;;;;;;6.50;2.63;;;4.30;99.90;;;;;;5066091;23;20194;-70
2022/09/20 00:43:02;;;;;;;5.83;2.83;;;4.30;99.90;;;;;;5067292;23;20427;-71
2022/09/20 00:45:06;;;;;;;8.23;2.30;;;4.30;99.90;;;;;;5041248;23;20170;-74
2022/09/20 00:47:32;;;;;;;7.70;2.10;;;4.30;99.90;;;;;;5067135;23;20164;-71
2022/09/20 00:49:35;;;;;;;3.27;2.13;;;4.30;99.90;;;;;;5066280;23;20471;-71
2022/09/20 00:51:40;;;;;;;4.57;1.90;;;4.30;99.90;;;;;;5065880;23;20405;-71
2022/09/20 00:53:46;;;;;;;2.97;1.93;;;4.30;99.90;;;;;;5066798;23;20427;-71
2022/09/20 00:55:52;;;;;;;3.97;1.80;;;4.30;99.90;;;;;;5066838;23;20781;-72
2022/09/20 00:57:53;;;;;;;2.90;1.67;;;4.20;99.90;;;;;;5066984;23;20384;-71
2022/09/20 00:59:54;;;;;;;4.53;1.97;;;4.10;99.90;;;;;;5067082;23;20390;-71
2022/09/20 01:02:08;;;;;;;2.33;1.60;;;4.10;99.90;;;;;;5066072;23;20413;-71
2022/09/20 01:04:11;;;;;;;2.43;1.70;;;3.90;99.90;;;;;;5066874;23;20233;-71
2022/09/20 01:06:15;;;;;;;2.67;2.00;;;3.90;99.90;;;;;;5066701;23;20476;-71
2022/09/20 01:08:17;;;;;;;5.73;2.03;;;3.90;99.90;;;;;;5066864;23;20423;-71
2022/09/20 01:10:17;;;;;;;4.67;2.00;;;3.80;99.90;;;;;;5065998;23;20394;-71
2022/09/20 01:12:25;;;;;;;2.73;1.87;;;3.90;99.90;;;;;;5041025;23;20803;-71
2022/09/20 01:14:26;;;;;;;2.30;1.70;;;3.90;99.90;;;;;;5066802;23;20194;-71
2022/09/20 01:16:29;;;;;;;1.40;1.30;;;3.80;99.90;;;;;;5067205;23;20391;-71
2022/09/20 01:18:31;;;;;;;5.60;1.80;;;3.70;99.90;;;;;;5066767;23;20164;-71
2022/09/20 01:20:35;;;;;;;3.80;1.77;;;3.70;99.90;;;;;;5066041;23;20388;-73
2022/09/20 01:23:13;;;;;;;2.70;1.70;;;3.70;99.90;;;;;;5067001;23;20492;-71
2022/09/20 01:25:51;;;;;;;2.77;1.67;;;3.60;99.90;;;;;;5041974;23;20392;-71
2022/09/20 01:27:53;;;;;;;4.47;1.40;;;3.50;99.90;;;;;;5067340;23;20813;-71
2022/09/20 01:29:53;;;;;;;4.73;1.60;;;3.50;99.90;;;;;;5066557;23;20394;-71
2022/09/20 01:31:59;;;;;;;1.83;1.60;;;3.50;99.90;;;;;;5040133;23;20417;-72
2022/09/20 01:34:00;;;;;;;4.30;1.83;;;3.40;99.90;;;;;;5066713;23;20225;-71
2022/09/20 01:36:04;;;;;;;5.77;2.13;;;3.30;99.90;;;;;;5066771;23;20707;-71
2022/09/20 01:38:36;;;;;;;8.17;1.90;;;3.40;99.90;;;;;;5066803;23;20399;-71
2022/09/20 01:40:47;;;;;;;5.83;2.00;;;3.40;99.90;;;;;;5066040;23;20468;-71
2022/09/20 01:43:02;;;;;;;3.73;2.70;;;3.40;99.90;;;;;;5041320;23;20403;-70
2022/09/20 01:45:10;;;;;;;5.90;3.10;;;3.40;99.90;;;;;;5040730;23;20396;-69
2022/09/20 01:47:14;;;;;;;4.43;2.07;;;3.30;99.90;;;;;;5066424;23;20512;-70
2022/09/20 01:49:43;;;;;;;3.97;2.23;;;3.30;99.90;;;;;;5066493;23;20400;-70
2022/09/20 01:52:02;;;;;;;5.10;2.07;;;3.30;99.90;;;;;;5065885;23;20574;-71
2022/09/20 01:54:05;;;;;;;4.60;2.70;;;3.30;99.90;;;;;;5066516;23;20438;-71
2022/09/20 01:56:06;;;;;;;4.50;2.30;;;3.30;99.90;;;;;;5066370;23;20420;-71
2022/09/20 01:58:34;;;;;;;4.90;2.00;;;3.40;99.90;;;;;;5066906;23;20398;-71
2022/09/20 02:00:46;;;;;;;4.40;2.40;;;3.50;99.90;;;;;;5065861;23;20210;-71
2022/09/20 02:03:05;;;;;;;5.37;2.03;;;3.60;99.90;;;;;;5066755;23;20386;-71
2022/09/20 02:05:37;;;;;;;3.50;1.83;;;3.60;99.90;;;;;;5040680;23;20436;-71
2022/09/20 02:07:40;;;;;;;5.27;1.90;;;3.60;99.90;;;;;;5066545;23;20422;-71
2022/09/20 02:10:18;;;;;;;6.63;2.10;;;3.60;99.90;;;;;;5040762;23;20455;-71
2022/09/20 02:12:33;;;;;;;5.47;2.30;;;3.60;99.90;;;;;;5066283;23;20872;-70
2022/09/20 02:14:36;;;;;;;5.87;2.40;;;3.70;99.90;;;;;;5066422;23;20441;-71
2022/09/20 02:16:56;;;;;;;5.70;2.10;;;3.80;99.90;;;;;;5066333;23;20870;-70
2022/09/20 02:19:06;;;;;;;4.00;2.10;;;4.00;99.90;;;;;;5066376;23;20415;-71
2022/09/20 02:21:36;;;;;;;4.57;1.90;;;4.10;99.90;;;;;;5065601;23;20891;-70
2022/09/20 02:23:40;;;;;;;14.13;2.40;;;4.10;99.90;;;;;;5066179;23;20381;-71
2022/09/20 02:25:47;;;;;;;6.07;2.20;;;4.20;99.90;;;;;;5066473;23;20388;-71
2022/09/20 02:28:30;;;;;;;4.43;2.20;;;4.30;99.90;;;;;;5066277;23;20380;-71
2022/09/20 02:30:36;;;;;;;5.00;2.27;;;4.30;99.90;;;;;;5059013;23;20377;-71
2022/09/20 02:32:58;;;;;;;10.47;2.20;;;4.30;99.90;;;;;;5039993;23;20410;-71
2022/09/20 02:35:15;;;;;;;6.80;3.27;;;4.30;99.90;;;;;;5042430;23;20405;-69
2022/09/20 02:37:35;;;;;;;5.10;2.63;;;4.20;99.90;;;;;;5042282;23;20864;-70
2022/09/20 02:40:04;;;;;;;7.93;2.40;;;4.20;99.90;;;;;;5042059;23;20405;-69
2022/09/20 02:42:30;;;;;;;8.73;2.67;;;4.30;99.90;;;;;;5007359;23;20433;-70
2022/09/20 02:44:53;;;;;;;7.77;2.20;;;4.20;99.90;;;;;;5042347;23;20542;-70
2022/09/20 02:47:06;;;;;;;8.23;2.67;;;4.20;99.90;;;;;;5041379;23;20488;-70
2022/09/20 02:49:13;;;;;;;3.57;2.40;;;4.10;99.90;;;;;;5041924;23;20387;-70
2022/09/20 02:51:30;;;;;;;6.80;2.30;;;4.20;99.90;;;;;;5039469;23;20452;-70
2022/09/20 02:53:36;;;;;;;6.03;2.13;;;4.10;99.90;;;;;;5041936;23;20520;-70
2022/09/20 02:55:45;;;;;;;5.77;2.30;;;4.00;99.90;;;;;;5042064;23;20382;-70
2022/09/20 02:58:07;;;;;;;4.87;2.60;;;4.00;99.90;;;;;;5042314;23;20857;-70
2022/09/20 03:00:31;;;;;;;3.10;2.20;;;4.00;99.90;;;;;;5042042;23;20395;-71
2022/09/20 03:02:50;;;;;;;7.07;2.53;;;4.00;99.90;;;;;;5042261;23;20726;-71
2022/09/20 03:05:13;;;;;;;9.70;2.37;;;4.10;99.90;;;;;;5042490;23;21144;-71
2022/09/20 03:08:24;;;;;;;5.47;2.00;;;4.10;99.90;;;;;;5042145;23;20512;-71
2022/09/20 03:10:31;;;;;;;3.43;2.00;;;4.00;99.90;;;;;;4898599;24;20407;-71
2022/09/20 03:13:01;;;;;;;15.67;2.23;;;3.90;99.90;;;;;;4968580;23;20833;-71
2022/09/20 03:15:24;;;;;;;4.17;2.23;;;3.80;99.90;;;;;;5004904;23;20412;-71
2022/09/20 03:17:43;;;;;;;11.30;3.70;;;3.80;99.90;;;;;;5041881;23;20431;-71
2022/09/20 03:20:16;;;;;;;7.90;3.30;;;3.80;99.90;;;;;;5040502;23;20388;-72
2022/09/20 03:22:48;;;;;;;26.17;7.40;;;3.80;99.90;;;;;;5042114;23;21034;-71
2022/09/20 03:24:49;;;;;;;15.27;5.40;;;3.70;99.90;;;;;;5041338;23;20484;-72
2022/09/20 03:27:02;;;;;;;15.13;4.63;;;3.60;99.90;;;;;;5042333;23;21113;-70
2022/09/20 03:29:25;;;;;;;10.70;4.40;;;3.60;99.90;;;;;;5042127;23;20173;-71
2022/09/20 03:31:37;;;;;;;17.83;8.23;;;3.50;99.90;;;;;;5041067;23;20454;-71
2022/09/20 03:34:02;;;;;;;13.80;5.23;;;3.40;99.90;;;;;;5055406;23;20446;-70
2022/09/20 03:36:07;;;;;;;14.87;6.03;;;3.50;99.90;;;;;;5067067;23;20820;-71
2022/09/20 03:38:35;;;;;;;16.33;5.53;;;3.40;99.90;;;;;;5066850;23;20472;-72
2022/09/20 03:40:50;;;;;;;13.03;5.23;;;3.40;99.90;;;;;;5066162;23;20386;-71
2022/09/20 03:42:53;;;;;;;16.73;4.77;;;3.30;99.90;;;;;;5067140;23;20418;-71
2022/09/20 03:44:57;;;;;;;14.77;4.60;;;3.30;99.90;;;;;;5067186;23;20879;-71
2022/09/20 03:47:35;;;;;;;21.97;6.83;;;3.30;99.90;;;;;;5067235;23;20392;-71
2022/09/20 03:49:46;;;;;;;23.53;7.10;;;3.20;99.90;;;;;;5067051;23;20410;-71
2022/09/20 03:52:05;;;;;;;18.87;6.27;;;3.20;99.90;;;;;;5066230;23;20888;-71
2022/09/20 03:54:43;;;;;;;15.17;5.90;;;3.10;99.90;;;;;;5067070;23;20522;-70
2022/09/20 03:57:12;;;;;;;14.33;5.17;;;3.20;99.90;;;;;;5066794;23;20382;-71
2022/09/20 03:59:53;;;;;;;15.50;6.27;;;3.20;99.90;;;;;;5066793;23;20369;-71
2022/09/20 04:02:22;;;;;;;10.97;4.13;;;3.20;99.90;;;;;;4944614;24;20429;-71
2022/09/20 04:04:49;;;;;;;10.97;4.60;;;3.30;99.90;;;;;;5066793;23;20467;-72
2022/09/20 04:07:18;;;;;;;8.77;4.43;;;3.20;99.90;;;;;;5066917;23;20358;-71
2022/09/20 04:09:30;;;;;;;7.47;3.73;;;3.20;99.90;;;;;;5066812;23;20382;-70
2022/09/20 04:11:55;;;;;;;12.37;4.93;;;3.20;99.90;;;;;;5066186;23;20461;-70
2022/09/20 04:14:17;;;;;;;7.97;3.60;;;3.20;99.90;;;;;;5066848;23;20419;-70
2022/09/20 04:16:57;;;;;;;9.17;4.20;;;3.20;99.90;;;;;;5066734;23;20370;-70
2022/09/20 04:19:08;;;;;;;9.07;5.07;;;3.20;99.90;;;;;;5067057;23;20906;-69
2022/09/20 04:21:22;;;;;;;6.67;3.50;;;3.20;99.90;;;;;;5040111;23;20419;-70
2022/09/20 04:23:49;;;;;;;11.00;4.60;;;3.20;99.90;;;;;;5066766;23;20406;-70
2022/09/20 04:25:50;;;;;;;5.37;3.23;;;3.20;99.90;;;;;;5066590;23;20396;-70
2022/09/20 04:27:57;;;;;;;5.73;3.20;;;3.10;99.90;;;;;;5066630;23;20454;-69
2022/09/20 04:30:04;;;;;;;5.43;2.80;;;3.10;99.90;;;;;;5066424;23;20145;-70
2022/09/20 04:32:29;;;;;;;6.37;3.10;;;3.10;99.90;;;;;;5065841;23;20413;-70
2022/09/20 04:37:17;;;;;;;8.07;3.13;;;3.00;99.90;;;;;;5067156;23;20562;-72
2022/09/20 04:39:18;;;;;;;4.70;3.13;;;2.90;99.90;;;;;;5041086;23;20406;-70
2022/09/20 04:41:28;;;;;;;6.83;2.40;;;2.90;99.90;;;;;;5065124;23;20435;-70
2022/09/20 04:43:51;;;;;;;4.80;2.73;;;2.90;99.90;;;;;;5066471;23;20147;-71
2022/09/20 04:46:19;;;;;;;3.70;2.70;;;3.00;99.90;;;;;;5066224;23;20378;-69
2022/09/20 04:48:32;;;;;;;4.70;2.27;;;3.20;99.90;;;;;;5066660;23;20370;-71
2022/09/20 04:50:41;;;;;;;5.47;3.03;;;3.20;99.90;;;;;;5040025;23;20411;-69
2022/09/20 04:53:14;;;;;;;10.10;3.10;;;3.10;99.90;;;;;;5066343;23;20425;-69
2022/09/20 04:55:35;;;;;;;19.93;3.43;;;3.20;99.90;;;;;;5016839;23;20398;-69
2022/09/20 04:57:41;;;;;;;6.10;2.90;;;3.20;99.90;;;;;;5066402;23;20696;-69
2022/09/20 05:00:00;;;;;;;6.97;2.73;;;3.30;99.90;;;;;;5067088;23;20386;-70
2022/09/20 05:02:14;;;;;;;3.47;3.13;;;3.30;99.90;;;;;;5041463;23;20521;-71
2022/09/20 05:04:28;;;;;;;5.60;2.93;;;3.30;99.90;;;;;;5067935;23;20463;-71
2022/09/20 05:07:03;;;;;;;3.37;2.90;;;3.20;99.90;;;;;;5067754;23;20402;-70
2022/09/20 05:09:18;;;;;;;6.20;3.23;;;3.10;99.90;;;;;;5067385;23;20401;-70
2022/09/20 05:11:45;;;;;;;3.87;2.60;;;3.00;99.90;;;;;;5066872;23;20413;-70
2022/09/20 05:14:15;;;;;;;2.80;2.40;;;3.00;99.90;;;;;;5067234;23;20414;-69
2022/09/20 05:16:41;;;;;;;6.57;2.87;;;2.90;99.90;;;;;;5067938;23;20411;-70
2022/09/20 05:19:20;;;;;;;8.10;3.13;;;2.80;99.90;;;;;;5068573;23;20783;-70
2022/09/20 05:21:59;;;;;;;4.93;3.27;;;2.80;99.90;;;;;;5065672;23;20425;-70
2022/09/20 05:24:28;;;;;;;5.70;3.33;;;2.90;99.90;;;;;;4969385;23;20985;-71
2022/09/20 05:27:00;;;;;;;7.30;3.67;;;2.90;99.90;;;;;;4968331;23;20465;-70
2022/09/20 05:29:37;;;;;;;7.03;3.60;;;3.00;99.90;;;;;;5010177;23;20423;-70
2022/09/20 05:32:17;;;;;;;13.20;7.20;;;3.00;99.90;;;;;;5040353;23;20441;-71
2022/09/20 05:34:41;;;;;;;13.90;6.30;;;3.00;99.90;;;;;;5066115;23;20473;-70
2022/09/20 05:37:06;;;;;;;7.83;5.30;;;3.10;99.90;;;;;;5066250;23;20387;-71
2022/09/20 05:39:46;;;;;;;14.27;6.33;;;3.10;99.90;;;;;;5066231;23;20376;-70
2022/09/20 05:42:04;;;;;;;13.83;6.03;;;3.10;99.90;;;;;;5039930;23;20441;-70
2022/09/20 05:44:27;;;;;;;14.87;6.17;;;3.20;99.90;;;;;;5066569;23;20375;-70
2022/09/20 05:46:52;;;;;;;11.13;5.50;;;3.30;99.90;;;;;;5066080;23;20377;-70
2022/09/20 05:48:55;;;;;;;9.20;4.80;;;3.30;99.90;;;;;;5066578;23;20384;-70
2022/09/20 05:51:08;;;;;;;8.27;4.73;;;3.30;99.90;;;;;;5066725;23;20408;-70
2022/09/20 05:53:31;;;;;;;11.73;4.93;;;3.40;99.90;;;;;;5072829;23;20457;-71
2022/09/20 05:55:55;;;;;;;12.73;5.53;;;3.40;99.90;;;;;;5074282;23;20368;-71
2022/09/20 05:58:23;;;;;;;12.90;5.73;;;3.30;99.90;;;;;;5016833;23;20888;-71
2022/09/20 06:00:31;;;;;;;11.40;6.60;;;3.40;99.90;;;;;;5073647;23;20371;-70
2022/09/20 06:02:50;;;;;;;11.80;6.20;;;3.40;99.90;;;;;;5048712;23;20403;-70
2022/09/20 06:05:06;;;;;;;11.07;5.17;;;3.40;99.90;;;;;;5073268;23;20934;-70
2022/09/20 06:07:19;;;;;;;11.97;5.73;;;3.40;99.90;;;;;;5073545;23;20857;-70
2022/09/20 06:10:00;;;;;;;9.20;5.47;;;3.40;99.90;;;;;;5047042;23;20416;-70
2022/09/20 06:12:25;;;;;;;10.57;5.73;;;3.50;99.90;;;;;;5073095;23;20440;-70
2022/09/20 06:14:46;;;;;;;8.67;5.27;;;3.40;99.90;;;;;;5047837;23;20439;-70
2022/09/20 06:17:10;;;;;;;9.13;4.47;;;3.50;99.90;;;;;;5074957;23;21084;-70
2022/09/20 06:19:18;;;;;;;9.97;4.80;;;3.50;99.90;;;;;;5076129;23;20777;-69
2022/09/20 06:21:45;;;;;;;13.03;5.37;;;3.60;99.90;;;;;;5074807;23;20411;-70
2022/09/20 06:23:46;;;;;;;10.27;4.73;;;3.70;99.90;;;;;;5068006;23;20375;-69
2022/09/20 06:25:58;;;;;;;7.53;3.23;;;3.80;99.90;;;;;;5065979;23;20890;-70
2022/09/20 06:28:13;;;;;;;9.33;4.00;;;3.90;99.90;;;;;;5065951;23;20152;-70
2022/09/20 06:30:34;;;;;;;7.13;2.80;;;3.80;99.90;;;;;;5065205;23;20378;-70
2022/09/20 06:32:51;;;;;;;5.33;3.30;;;3.90;99.90;;;;;;5039616;23;20442;-70
2022/09/20 06:34:52;;;;;;;6.93;3.30;;;4.00;99.90;;;;;;5041688;23;20422;-70
2022/09/20 06:42:48;;;;;;;8.33;3.60;;;4.40;99.90;;;;;;5041740;23;20365;-70
2022/09/20 06:44:48;;;;;;;4.93;3.60;;;4.60;99.90;;;;;;5041697;23;20389;-70
2022/09/20 06:46:52;;;;;;;5.37;3.77;;;4.70;99.90;;;;;;5041708;23;20567;-70
2022/09/20 06:48:54;;;;;;;9.40;3.63;;;4.80;99.90;;;;;;5040151;23;20170;-70
2022/09/20 06:50:55;;;;;;;7.73;3.83;;;4.90;99.90;;;;;;5040923;23;20822;-70
2022/09/20 06:52:55;;;;;;;4.87;3.43;;;5.00;99.90;;;;;;5041897;23;20403;-70
2022/09/20 06:54:56;;;;;;;6.30;3.43;;;5.00;99.90;;;;;;5041616;23;20513;-70
2022/09/20 06:56:57;;;;;;;7.73;4.27;;;5.00;99.90;;;;;;5041567;23;20161;-70
2022/09/20 06:58:57;;;;;;;8.57;3.47;;;5.10;99.90;;;;;;5041795;23;20221;-70
2022/09/20 07:00:58;;;;;;;7.23;4.30;;;5.10;99.90;;;;;;5040688;23;20190;-68
2022/09/20 07:02:58;;;;;;;8.17;3.83;;;5.10;99.90;;;;;;5041598;23;20162;-69
2022/09/20 07:04:59;;;;;;;6.07;3.90;;;5.30;99.90;;;;;;5041843;23;20166;-72
2022/09/20 07:07:01;;;;;;;6.33;4.17;;;5.30;99.90;;;;;;5041699;23;20188;-71
2022/09/20 07:09:02;;;;;;;7.23;4.80;;;5.50;99.90;;;;;;5042788;23;20221;-71
2022/09/20 07:11:08;;;;;;;7.57;4.67;;;5.60;99.90;;;;;;5042432;23;20433;-72
2022/09/20 07:13:10;;;;;;;10.50;5.00;;;5.80;99.90;;;;;;5042871;23;20219;-71
2022/09/20 07:15:11;;;;;;;6.63;4.30;;;5.90;99.90;;;;;;5042820;23;20466;-71
2022/09/20 07:17:13;;;;;;;6.97;4.17;;;6.00;99.90;;;;;;5043253;23;20398;-72
2022/09/20 07:19:15;;;;;;;8.60;5.00;;;6.10;99.90;;;;;;5041366;23;20205;-72
2022/09/20 07:21:17;;;;;;;7.20;3.83;;;6.30;99.90;;;;;;5042564;23;20407;-73
2022/09/20 07:23:18;;;;;;;6.20;3.57;;;6.60;99.90;;;;;;5043347;23;20469;-71
2022/09/20 07:25:20;;;;;;;7.03;3.47;;;6.90;99.90;;;;;;5043115;23;20399;-72
2022/09/20 07:27:21;;;;;;;11.10;3.80;;;7.00;99.90;;;;;;5043161;23;20710;-72
2022/09/20 07:29:21;;;;;;;11.80;3.53;;;7.30;99.90;;;;;;5041325;23;20410;-72
2022/09/20 07:31:24;;;;;;;4.83;2.40;;;7.40;99.90;;;;;;5042133;23;20189;-72
2022/09/20 07:33:24;;;;;;;3.90;2.43;;;7.40;99.90;;;;;;5053988;23;20265;-72
2022/09/20 07:35:25;;;;;;;4.17;2.63;;;7.70;99.90;;;;;;5067447;23;20393;-72
2022/09/20 07:37:25;;;;;;;7.60;3.03;;;8.00;99.90;;;;;;5067340;23;20297;-72
2022/09/20 07:39:26;;;;;;;7.23;2.10;;;8.10;99.90;;;;;;5067076;23;20216;-72
2022/09/20 07:41:29;;;;;;;4.87;2.43;;;8.20;99.90;;;;;;5066350;23;20182;-72
2022/09/20 07:43:30;;;;;;;7.47;2.97;;;8.30;99.90;;;;;;5067212;23;20225;-72
2022/09/20 07:45:33;;;;;;;8.90;2.50;;;8.50;99.90;;;;;;5067033;23;20164;-72
2022/09/20 07:47:34;;;;;;;7.37;2.40;;;8.70;99.90;;;;;;5041157;23;20523;-72
2022/09/20 07:49:35;;;;;;;5.07;2.20;;;9.10;99.90;;;;;;5066993;23;20167;-72
2022/09/20 07:51:35;;;;;;;7.17;2.20;;;9.40;99.90;;;;;;5066219;23;20241;-72
2022/09/20 07:53:37;;;;;;;3.27;1.50;;;9.80;99.90;;;;;;5066806;23;20632;-72
2022/09/20 07:55:37;;;;;;;3.87;2.00;;;9.90;99.90;;;;;;5041003;23;20237;-72
2022/09/20 07:57:38;;;;;;;6.23;1.90;;;9.80;99.90;;;;;;5066924;23;20536;-72
2022/09/20 07:59:38;;;;;;;6.23;2.07;;;9.80;99.90;;;;;;5067007;23;20213;-71
2022/09/20 08:01:40;;;;;;;6.77;1.93;;;10.10;99.90;;;;;;5065937;23;20180;-72
2022/09/20 08:03:41;;;;;;;7.30;2.10;;;10.10;99.90;;;;;;5066850;23;20174;-72
2022/09/20 08:05:42;;;;;;;6.53;2.17;;;10.00;99.90;;;;;;5066794;23;20169;-72
2022/09/20 08:07:42;;;;;;;6.57;1.90;;;9.90;99.90;;;;;;5066893;23;20162;-72
2022/09/20 08:09:43;;;;;;;4.73;1.70;;;10.00;99.90;;;;;;5066778;23;20166;-71
2022/09/20 08:11:45;;;;;;;3.27;1.93;;;9.90;99.90;;;;;;5066330;23;20218;-71
2022/09/20 08:13:48;;;;;;;3.23;1.70;;;9.90;99.90;;;;;;5066866;23;20194;-72
2022/09/20 08:15:48;;;;;;;2.63;1.70;;;9.90;99.90;;;;;;5066754;23;20167;-73
2022/09/20 08:17:49;;;;;;;7.77;1.90;;;10.00;99.40;;;;;;5066731;23;20679;-72
2022/09/20 08:19:51;;;;;;;4.37;2.00;;;10.00;99.90;;;;;;5066337;23;20181;-72
2022/09/20 08:21:53;;;;;;;5.60;1.50;;;10.00;98.80;;;;;;5066254;23;20258;-72
2022/09/20 08:23:53;;;;;;;5.30;1.90;;;10.10;99.90;;;;;;5066895;23;20159;-71
2022/09/20 08:25:56;;;;;;;3.53;1.47;;;10.30;99.10;;;;;;5066812;23;20197;-72
2022/09/20 08:27:56;;;;;;;1.93;1.20;;;10.40;96.20;;;;;;5040836;23;20629;-71
2022/09/20 08:29:57;;;;;;;3.43;1.47;;;10.60;96.60;;;;;;5066379;23;20162;-72
2022/09/20 08:32:00;;;;;;;2.33;1.20;;;10.80;96.00;;;;;;5066275;23;20241;-72
2022/09/20 08:34:02;;;;;;;1.13;0.70;;;11.30;96.90;;;;;;5066550;23;20647;-72
2022/09/20 08:36:04;;;;;;;2.63;1.10;;;11.60;90.00;;;;;;5066782;23;20159;-71
2022/09/20 08:38:06;;;;;;;1.87;1.03;;;12.00;91.70;;;;;;5066630;23;20174;-72
2022/09/20 08:40:11;;;;;;;2.07;0.90;;;12.30;82.80;;;;;;5066540;23;20509;-72
2022/09/20 08:42:29;;;;;;;0.70;0.63;;;12.20;82.70;;;;;;5040841;23;20198;-72
2022/09/20 08:44:51;;;;;;;1.43;0.90;;;12.00;78.50;;;;;;5066632;23;20617;-72
2022/09/20 08:47:05;;;;;;;2.07;0.80;;;12.00;76.00;;;;;;5066643;23;20155;-71
2022/09/20 08:49:07;;;;;;;1.10;0.80;;;11.80;74.50;;;;;;5066548;23;20222;-71
2022/09/20 08:51:11;;;;;;;1.30;1.00;;;12.10;73.20;;;;;;5065691;23;20192;-72
2022/09/20 08:53:14;;;;;;;1.17;0.80;;;12.30;73.80;;;;;;5040552;23;20686;-72
2022/09/20 08:55:30;;;;;;;1.13;0.70;;;12.60;73.00;;;;;;5040742;23;20166;-72
2022/09/20 08:57:32;;;;;;;0.90;0.77;;;12.90;68.90;;;;;;5066736;23;20147;-72
2022/09/20 08:59:33;;;;;;;2.40;0.80;;;13.10;68.10;;;;;;5066448;23;20170;-72
2022/09/20 09:01:34;;;;;;;0.87;0.80;;;13.30;61.60;;;;;;5065885;23;20202;-72
2022/09/20 09:03:34;;;;;;;1.43;0.70;;;13.30;64.60;;;;;;5066528;23;20221;-72
2022/09/20 09:05:39;;;;;;;1.57;0.80;;;13.40;56.90;;;;;;5066379;23;20575;-72
2022/09/20 09:07:40;;;;;;;1.73;0.73;;;13.80;58.90;;;;;;5066833;23;20182;-72
2022/09/20 09:09:43;;;;;;;2.60;1.10;;;14.00;59.50;;;;;;5066478;23;20161;-72
2022/09/20 09:11:44;;;;;;;0.87;0.83;;;14.10;59.80;;;;;;5065702;23;20483;-72
2022/09/20 09:14:03;;;;;;;2.70;1.53;;;14.30;59.00;;;;;;5066457;23;20193;-71
2022/09/20 09:16:15;;;;;;;3.07;1.27;;;14.50;54.40;;;;;;5066381;23;20154;-73
2022/09/20 09:18:15;;;;;;;2.17;1.00;;;14.40;56.20;;;;;;5040374;23;20165;-73
2022/09/20 09:20:21;;;;;;;1.80;0.73;;;14.00;60.60;;;;;;5063715;23;20185;-71
2022/09/20 09:22:40;;;;;;;2.70;0.83;;;14.00;55.20;;;;;;5066708;23;20570;-72
2022/09/20 09:24:41;;;;;;;2.10;0.90;;;13.70;54.30;;;;;;5040535;23;20163;-72
2022/09/20 09:26:42;;;;;;;2.00;0.90;;;14.00;55.10;;;;;;5066201;23;20189;-73
2022/09/20 09:28:43;;;;;;;3.73;1.27;;;14.30;54.30;;;;;;5066431;23;20166;-72
2022/09/20 09:30:48;;;;;;;2.93;1.10;;;14.60;53.30;;;;;;5065319;23;20628;-72
2022/09/20 09:32:49;;;;;;;2.47;1.07;;;14.40;52.60;;;;;;5066020;23;20282;-71
2022/09/20 09:34:50;;;;;;;1.47;1.07;;;14.30;55.00;;;;;;5040495;23;20347;-72
2022/09/20 09:36:51;;;;;;;2.13;1.10;;;14.30;53.20;;;;;;5067363;23;20162;-72
2022/09/20 09:39:15;;;;;;;1.57;1.00;;;14.30;55.50;;;;;;5042085;23;20174;-72
2022/09/20 09:41:28;;;;;;;2.20;1.33;;;14.00;57.70;;;;;;5067791;23;20182;-72
2022/09/20 09:43:34;;;;;;;1.30;0.90;;;14.20;53.60;;;;;;5068647;23;20201;-71
2022/09/20 09:45:39;;;;;;;1.60;0.80;;;14.00;50.90;;;;;;5069130;23;20568;-71
2022/09/20 09:47:40;;;;;;;1.37;1.00;;;13.90;54.30;;;;;;5042954;23;20170;-71
2022/09/20 09:49:55;;;;;;;1.53;0.97;;;13.70;53.60;;;;;;5068735;23;20166;-73
2022/09/20 09:52:02;;;;;;;1.20;0.80;;;13.90;55.00;;;;;;5042661;23;20595;-72
2022/09/20 09:54:03;;;;;;;1.03;0.93;;;13.90;54.40;;;;;;5068457;23;20273;-71
2022/09/20 09:56:48;;;;;;;2.07;1.10;;;13.80;54.60;;;;;;5068463;23;20162;-71
2022/09/20 09:59:04;;;;;;;1.40;1.20;;;14.10;55.50;;;;;;5028218;23;20170;-72
2022/09/20 10:01:20;;;;;;;0.97;0.90;;;13.90;54.20;;;;;;5041973;23;20187;-72
2022/09/20 10:03:47;;;;;;;1.00;0.80;;;13.70;53.60;;;;;;5068659;23;20147;-72
2022/09/20 10:06:24;;;;;;;2.40;1.00;;;13.80;53.40;;;;;;5068411;23;20146;-72
2022/09/20 10:08:46;;;;;;;1.90;0.90;;;14.20;53.30;;;;;;5043143;23;20218;-72
2022/09/20 10:11:06;;;;;;;1.07;0.87;;;14.10;53.80;;;;;;5068073;23;20173;-72
2022/09/20 10:13:19;;;;;;;2.13;0.80;;;14.00;55.80;;;;;;5042943;23;20174;-72
2022/09/20 10:15:20;;;;;;;2.30;1.20;;;14.20;54.30;;;;;;5068555;23;20201;-72
2022/09/20 10:17:33;;;;;;;4.77;1.00;;;14.00;55.30;;;;;;5068520;23;20162;-72
2022/09/20 10:20:12;;;;;;;3.70;0.80;;;13.60;54.30;;;;;;5068649;23;20143;-71
2022/09/20 10:22:23;;;;;;;2.63;0.80;;;13.40;56.90;;;;;;5042350;23;20219;-72
2022/09/20 10:24:29;;;;;;;1.80;1.10;;;13.10;56.50;;;;;;5068374;23;20221;-73
2022/09/20 10:26:58;;;;;;;1.40;0.93;;;13.00;57.20;;;;;;5042675;23;20171;-72
2022/09/20 10:29:14;;;;;;;1.80;0.90;;;13.40;56.70;;;;;;5042928;23;20203;-71
2022/09/20 10:31:24;;;;;;;1.37;0.77;;;13.60;54.70;;;;;;5067877;23;20737;-72
2022/09/20 10:33:45;;;;;;;2.47;1.23;;;13.50;55.60;;;;;;5042370;23;20270;-72
2022/09/20 10:36:14;;;;;;;2.27;0.90;;;13.30;54.30;;;;;;5042643;23;20241;-72
2022/09/20 10:38:23;;;;;;;4.20;1.00;;;13.30;55.50;;;;;;5044461;23;20147;-72
2022/09/20 10:43:35;;;;;;;1.33;0.90;;;14.40;52.50;;;;;;5013888;23;20274;-74
2022/09/20 10:46:02;;;;;;;1.60;1.03;;;15.20;48.30;;;;;;5044369;23;20585;-72
2022/09/20 10:48:11;;;;;;;1.37;1.03;;;16.30;45.30;;;;;;5019191;23;20207;-71
2022/09/20 10:51:01;;;;;;;1.10;0.80;;;15.40;45.80;;;;;;5042814;23;20155;-72
2022/09/20 10:53:54;;;;;;;1.07;0.80;;;14.70;48.60;;;;;;5043484;23;20230;-73
2022/09/20 10:56:28;;;;;;;1.80;0.90;;;15.30;46.50;;;;;;5003651;23;20249;-73
2022/09/20 10:58:36;;;;;;;3.47;1.00;;;15.30;45.10;;;;;;5043335;23;20159;-72
2022/09/20 11:00:54;;;;;;;2.20;0.90;;;14.80;47.70;;;;;;5042503;23;20194;-72
2022/09/20 11:03:13;;;;;;;1.77;1.00;;;14.50;50.10;;;;;;5043455;23;20154;-72
2022/09/20 11:05:37;;;;;;;1.33;0.90;;;14.40;52.00;;;;;;5043416;23;20151;-72
2022/09/20 11:08:07;;;;;;;2.53;1.10;;;14.20;50.90;;;;;;5043558;23;20149;-72
2022/09/20 11:10:27;;;;;;;1.37;1.20;;;14.30;49.50;;;;;;5040976;23;20677;-72
2022/09/20 11:12:48;;;;;;;1.73;1.13;;;15.70;47.50;;;;;;5041983;23;20234;-72
2022/09/20 11:15:03;;;;;;;0.90;0.87;;;17.00;48.80;;;;;;5018361;23;20184;-72
2022/09/20 11:17:19;;;;;;;1.07;1.00;;;19.00;39.20;;;;;;5042231;23;20148;-72
2022/09/20 11:19:34;;;;;;;1.53;1.00;;;19.50;38.40;;;;;;5041722;23;20175;-72
2022/09/20 11:21:52;;;;;;;0.93;0.80;;;17.00;40.90;;;;;;5041929;23;20210;-72
2022/09/20 11:24:12;;;;;;;1.00;0.90;;;16.50;42.20;;;;;;5042115;23;20147;-73
2022/09/20 11:26:22;;;;;;;1.00;0.90;;;16.80;41.20;;;;;;5041903;23;20154;-72
2022/09/20 11:28:45;;;;;;;1.13;0.83;;;16.20;41.80;;;;;;5017794;23;20191;-72
2022/09/20 11:31:14;;;;;;;3.70;1.13;;;15.40;45.60;;;;;;5040977;23;20199;-72
2022/09/20 11:33:26;;;;;;;2.27;1.07;;;15.40;45.00;;;;;;5052124;23;20178;-73
2022/09/20 11:35:34;;;;;;;1.23;1.03;;;15.50;47.40;;;;;;5041623;23;20147;-73
2022/09/20 11:37:42;;;;;;;2.93;0.93;;;15.50;45.40;;;;;;5041451;23;20155;-72
2022/09/20 11:40:01;;;;;;;5.53;1.13;;;15.50;45.80;;;;;;5041358;23;20151;-72
2022/09/20 11:42:04;;;;;;;1.37;0.80;;;15.40;46.00;;;;;;5040877;23;20179;-72
2022/09/20 11:44:10;;;;;;;1.07;0.90;;;15.00;49.00;;;;;;5041531;23;20159;-72
2022/09/20 11:46:20;;;;;;;1.30;1.10;;;15.10;47.30;;;;;;5041288;23;20170;-72
2022/09/20 11:48:52;;;;;;;2.00;1.00;;;14.60;48.70;;;;;;5041517;23;20159;-72